Omer, Michigan
Current Conditions -  °F | °C
As of 9:14 PM on Sunday 21 Dec 2014 (Local Time) from KIKW Reporting Station
Overcast Overcast  
Wind Chill: 27°   Ceiling: 5000
Heat Index: 33°   Visibility: 10mi
Dew Point: 25°   Wind: 7mph
Humidity: 71%   Direction: 150°SSE
Pressure: 30.17"   Gusts: NA
Location:  44.05°N, 83.85°W
Report Text: KIKW 220214Z AUTO 15006KT 10SM OVC050 01/M04 A3017 RMK AO2 T00081040
Loading
Personal Weather Stations






























Interactive Weather Map New forecast layout! Learn more

10-Day Weather Forecast

Advertisements
Track Severe Weather on mobile